sensor_id;sensor_type;location;lat;lon;timestamp;temperature;humidity
57030;DHT22;42920;45.306;20.448;2023-11-22T00:01:58;281.70;2278.40
57030;DHT22;42920;45.306;20.448;2023-11-22T00:04:24;281.70;2278.40
57030;DHT22;42920;45.306;20.448;2023-11-22T00:06:50;281.70;2278.40
57030;DHT22;42920;45.306;20.448;2023-11-22T00:09:15;281.70;2278.40
57030;DHT22;42920;45.306;20.448;2023-11-22T00:11:41;281.70;2278.40
57030;DHT22;42920;45.306;20.448;2023-11-22T00:14:07;281.70;2278.40
57030;DHT22;42920;45.306;20.448;2023-11-22T00:16:32;281.70;2201.60
57030;DHT22;42920;45.306;20.448;2023-11-22T00:18:58;281.70;2124.80
57030;DHT22;42920;45.306;20.448;2023-11-22T00:21:23;281.70;2278.40
57030;DHT22;42920;45.306;20.448;2023-11-22T00:23:50;281.70;1971.20
57030;DHT22;42920;45.306;20.448;2023-11-22T00:26:15;281.80;1894.40
57030;DHT22;42920;45.306;20.448;2023-11-22T00:28:41;281.70;1920.00
57030;DHT22;42920;45.306;20.448;2023-11-22T00:31:06;281.70;2278.40
57030;DHT22;42920;45.306;20.448;2023-11-22T00:33:33;281.70;1945.60
57030;DHT22;42920;45.306;20.448;2023-11-22T00:36:00;256.90;1894.40
57030;DHT22;42920;45.306;20.448;2023-11-22T00:38:26;256.90;2073.60
57030;DHT22;42920;45.306;20.448;2023-11-22T00:40:51;281.60;2278.40
57030;DHT22;42920;45.306;20.448;2023-11-22T00:43:17;281.70;2278.40
57030;DHT22;42920;45.306;20.448;2023-11-22T00:45:44;281.70;2278.40
57030;DHT22;42920;45.306;20.448;2023-11-22T00:48:10;281.70;2278.40
57030;DHT22;42920;45.306;20.448;2023-11-22T00:50:36;281.70;2278.40
57030;DHT22;42920;45.306;20.448;2023-11-22T00:53:01;281.60;2278.40
57030;DHT22;42920;45.306;20.448;2023-11-22T00:55:27;256.90;2252.80
57030;DHT22;42920;45.306;20.448;2023-11-22T00:57:52;256.90;2252.80
57030;DHT22;42920;45.306;20.448;2023-11-22T01:00:18;256.80;1971.20
57030;DHT22;42920;45.306;20.448;2023-11-22T01:02:43;256.80;1945.60
57030;DHT22;42920;45.306;20.448;2023-11-22T01:05:09;256.70;2252.80
57030;DHT22;42920;45.306;20.448;2023-11-22T01:07:36;256.80;2252.80
57030;DHT22;42920;45.306;20.448;2023-11-22T01:10:02;256.30;2252.80
57030;DHT22;42920;45.306;20.448;2023-11-22T01:12:28;256.60;2252.80
57030;DHT22;42920;45.306;20.448;2023-11-22T01:14:53;256.70;2252.80
57030;DHT22;42920;45.306;20.448;2023-11-22T01:17:19;256.60;2252.80
57030;DHT22;42920;45.306;20.448;2023-11-22T01:19:44;256.60;2252.80
57030;DHT22;42920;45.306;20.448;2023-11-22T01:22:10;256.50;2252.80
57030;DHT22;42920;45.306;20.448;2023-11-22T01:24:35;256.40;2252.80
57030;DHT22;42920;45.306;20.448;2023-11-22T01:27:03;256.40;2252.80
57030;DHT22;42920;45.306;20.448;2023-11-22T01:29:28;256.40;2252.80
57030;DHT22;42920;45.306;20.448;2023-11-22T01:31:54;256.50;2252.80
57030;DHT22;42920;45.306;20.448;2023-11-22T01:34:20;256.50;2252.80
57030;DHT22;42920;45.306;20.448;2023-11-22T01:36:49;256.40;2252.80
57030;DHT22;42920;45.306;20.448;2023-11-22T01:39:14;256.40;2252.80
57030;DHT22;42920;45.306;20.448;2023-11-22T01:41:40;256.50;2252.80
57030;DHT22;42920;45.306;20.448;2023-11-22T01:44:07;256.50;2252.80
57030;DHT22;42920;45.306;20.448;2023-11-22T01:46:33;256.50;2252.80
57030;DHT22;42920;45.306;20.448;2023-11-22T01:48:59;256.30;2252.80
57030;DHT22;42920;45.306;20.448;2023-11-22T01:51:25;256.30;2252.80
57030;DHT22;42920;45.306;20.448;2023-11-22T01:53:51;256.30;2252.80
57030;DHT22;42920;45.306;20.448;2023-11-22T01:56:19;256.30;2252.80
57030;DHT22;42920;45.306;20.448;2023-11-22T01:58:45;256.30;2252.80
57030;DHT22;42920;45.306;20.448;2023-11-22T02:01:10;256.40;2252.80
57030;DHT22;42920;45.306;20.448;2023-11-22T02:03:37;256.30;2252.80
57030;DHT22;42920;45.306;20.448;2023-11-22T02:06:03;256.20;2252.80
57030;DHT22;42920;45.306;20.448;2023-11-22T02:08:30;256.20;2252.80
57030;DHT22;42920;45.306;20.448;2023-11-22T02:10:59;256.20;2252.80
57030;DHT22;42920;45.306;20.448;2023-11-22T02:13:25;256.20;2252.80
57030;DHT22;42920;45.306;20.448;2023-11-22T02:15:52;256.30;2252.80
57030;DHT22;42920;45.306;20.448;2023-11-22T02:18:25;256.40;2252.80
57030;DHT22;42920;45.306;20.448;2023-11-22T02:20:51;256.40;2252.80
57030;DHT22;42920;45.306;20.448;2023-11-22T02:23:16;256.30;2252.80
57030;DHT22;42920;45.306;20.448;2023-11-22T02:25:42;256.20;2252.80
57030;DHT22;42920;45.306;20.448;2023-11-22T02:28:08;256.30;2252.80
57030;DHT22;42920;45.306;20.448;2023-11-22T02:30:34;256.20;2252.80
57030;DHT22;42920;45.306;20.448;2023-11-22T02:33:00;256.00;2252.80
57030;DHT22;42920;45.306;20.448;2023-11-22T02:35:25;256.10;2252.80
57030;DHT22;42920;45.306;20.448;2023-11-22T02:37:54;256.20;2252.80
57030;DHT22;42920;45.306;20.448;2023-11-22T02:40:20;256.10;2252.80
57030;DHT22;42920;45.306;20.448;2023-11-22T02:42:46;256.00;2252.80
57030;DHT22;42920;45.306;20.448;2023-11-22T02:45:13;256.00;2252.80
57030;DHT22;42920;45.306;20.448;2023-11-22T02:47:39;231.30;2252.80
57030;DHT22;42920;45.306;20.448;2023-11-22T02:50:05;231.10;2252.80
57030;DHT22;42920;45.306;20.448;2023-11-22T02:52:31;231.20;2252.80
57030;DHT22;42920;45.306;20.448;2023-11-22T02:54:57;231.20;2252.80
57030;DHT22;42920;45.306;20.448;2023-11-22T02:57:23;231.20;2252.80
57030;DHT22;42920;45.306;20.448;2023-11-22T02:59:49;231.30;2252.80
57030;DHT22;42920;45.306;20.448;2023-11-22T03:02:14;231.30;2252.80
57030;DHT22;42920;45.306;20.448;2023-11-22T03:04:42;231.30;2252.80
57030;DHT22;42920;45.306;20.448;2023-11-22T03:07:09;256.00;2252.80
57030;DHT22;42920;45.306;20.448;2023-11-22T03:09:35;256.00;2252.80
57030;DHT22;42920;45.306;20.448;2023-11-22T03:12:02;256.10;2252.80
57030;DHT22;42920;45.306;20.448;2023-11-22T03:14:28;256.20;2252.80
57030;DHT22;42920;45.306;20.448;2023-11-22T03:16:54;256.00;2252.80
57030;DHT22;42920;45.306;20.448;2023-11-22T03:19:20;231.30;2252.80
57030;DHT22;42920;45.306;20.448;2023-11-22T03:21:46;231.30;2252.80
57030;DHT22;42920;45.306;20.448;2023-11-22T03:24:11;256.00;2252.80
57030;DHT22;42920;45.306;20.448;2023-11-22T03:26:37;231.30;2252.80
57030;DHT22;42920;45.306;20.448;2023-11-22T03:29:02;256.00;2252.80
57030;DHT22;42920;45.306;20.448;2023-11-22T03:31:28;256.00;2252.80
57030;DHT22;42920;45.306;20.448;2023-11-22T03:33:54;231.30;2252.80
57030;DHT22;42920;45.306;20.448;2023-11-22T03:36:20;256.00;2252.80
57030;DHT22;42920;45.306;20.448;2023-11-22T03:38:46;231.10;2252.80
57030;DHT22;42920;45.306;20.448;2023-11-22T03:41:11;256.00;2252.80
57030;DHT22;42920;45.306;20.448;2023-11-22T03:43:37;256.00;2252.80
57030;DHT22;42920;45.306;20.448;2023-11-22T03:46:03;231.30;2252.80
57030;DHT22;42920;45.306;20.448;2023-11-22T03:48:28;256.00;2252.80
57030;DHT22;42920;45.306;20.448;2023-11-22T03:50:54;231.30;2252.80
57030;DHT22;42920;45.306;20.448;2023-11-22T03:53:20;231.30;2252.80
57030;DHT22;42920;45.306;20.448;2023-11-22T03:55:47;256.00;2252.80
57030;DHT22;42920;45.306;20.448;2023-11-22T03:58:13;256.00;2252.80
57030;DHT22;42920;45.306;20.448;2023-11-22T04:00:38;256.00;2252.80
57030;DHT22;42920;45.306;20.448;2023-11-22T04:03:04;256.10;2252.80
57030;DHT22;42920;45.306;20.448;2023-11-22T04:05:30;256.10;2252.80
57030;DHT22;42920;45.306;20.448;2023-11-22T04:07:55;256.20;2252.80
57030;DHT22;42920;45.306;20.448;2023-11-22T04:10:22;256.20;2252.80
57030;DHT22;42920;45.306;20.448;2023-11-22T04:12:47;256.20;2252.80
57030;DHT22;42920;45.306;20.448;2023-11-22T04:15:13;256.20;2252.80
57030;DHT22;42920;45.306;20.448;2023-11-22T04:17:39;256.20;2252.80
57030;DHT22;42920;45.306;20.448;2023-11-22T04:20:06;256.20;2252.80
57030;DHT22;42920;45.306;20.448;2023-11-22T04:22:34;256.40;2252.80
57030;DHT22;42920;45.306;20.448;2023-11-22T04:25:00;256.30;2124.80
57030;DHT22;42920;45.306;20.448;2023-11-22T04:27:27;256.40;2150.40
57030;DHT22;42920;45.306;20.448;2023-11-22T04:29:53;256.40;1996.80
57030;DHT22;42920;45.306;20.448;2023-11-22T04:32:18;256.40;1945.60
57030;DHT22;42920;45.306;20.448;2023-11-22T04:34:44;256.40;2252.80
57030;DHT22;42920;45.306;20.448;2023-11-22T04:37:10;256.40;1971.20
57030;DHT22;42920;45.306;20.448;2023-11-22T04:39:35;256.40;1868.80
57030;DHT22;42920;45.306;20.448;2023-11-22T04:42:01;256.20;2252.80
57030;DHT22;42920;45.306;20.448;2023-11-22T04:44:26;256.10;1996.80
57030;DHT22;42920;45.306;20.448;2023-11-22T04:46:52;256.00;2252.80
57030;DHT22;42920;45.306;20.448;2023-11-22T04:49:17;256.00;2252.80
57030;DHT22;42920;45.306;20.448;2023-11-22T04:51:43;256.10;2252.80
57030;DHT22;42920;45.306;20.448;2023-11-22T04:54:11;256.10;2252.80
57030;DHT22;42920;45.306;20.448;2023-11-22T04:56:36;256.10;2252.80
57030;DHT22;42920;45.306;20.448;2023-11-22T04:59:02;256.10;2252.80
57030;DHT22;42920;45.306;20.448;2023-11-22T05:01:32;256.20;2252.80
57030;DHT22;42920;45.306;20.448;2023-11-22T05:03:58;256.20;2252.80
57030;DHT22;42920;45.306;20.448;2023-11-22T05:06:24;256.10;2252.80
57030;DHT22;42920;45.306;20.448;2023-11-22T05:08:50;256.10;2252.80
57030;DHT22;42920;45.306;20.448;2023-11-22T05:11:15;256.10;2252.80
57030;DHT22;42920;45.306;20.448;2023-11-22T05:13:41;256.10;2252.80
57030;DHT22;42920;45.306;20.448;2023-11-22T05:16:08;256.10;2252.80
57030;DHT22;42920;45.306;20.448;2023-11-22T05:18:34;256.00;2252.80
57030;DHT22;42920;45.306;20.448;2023-11-22T05:21:04;256.00;2252.80
57030;DHT22;42920;45.306;20.448;2023-11-22T05:23:30;231.30;2252.80
57030;DHT22;42920;45.306;20.448;2023-11-22T05:25:57;256.00;2252.80
57030;DHT22;42920;45.306;20.448;2023-11-22T05:28:22;231.30;2252.80
57030;DHT22;42920;45.306;20.448;2023-11-22T05:30:48;256.10;2252.80
57030;DHT22;42920;45.306;20.448;2023-11-22T05:33:13;256.10;2252.80
57030;DHT22;42920;45.306;20.448;2023-11-22T05:35:39;256.00;2252.80
57030;DHT22;42920;45.306;20.448;2023-11-22T05:38:06;256.10;2252.80
57030;DHT22;42920;45.306;20.448;2023-11-22T05:40:32;256.20;2252.80
57030;DHT22;42920;45.306;20.448;2023-11-22T05:42:58;256.00;2099.20
57030;DHT22;42920;45.306;20.448;2023-11-22T05:45:24;231.30;2252.80
57030;DHT22;42920;45.306;20.448;2023-11-22T05:47:50;231.20;2252.80
57030;DHT22;42920;45.306;20.448;2023-11-22T05:50:16;231.10;2252.80
57030;DHT22;42920;45.306;20.448;2023-11-22T05:52:42;231.10;2252.80
57030;DHT22;42920;45.306;20.448;2023-11-22T05:55:08;231.20;2252.80
57030;DHT22;42920;45.306;20.448;2023-11-22T05:57:33;231.20;2252.80
57030;DHT22;42920;45.306;20.448;2023-11-22T05:59:59;231.20;2252.80
57030;DHT22;42920;45.306;20.448;2023-11-22T06:02:25;231.20;2252.80
57030;DHT22;42920;45.306;20.448;2023-11-22T06:04:50;231.30;2252.80
57030;DHT22;42920;45.306;20.448;2023-11-22T06:07:16;231.30;2252.80
57030;DHT22;42920;45.306;20.448;2023-11-22T06:09:41;231.20;2252.80
57030;DHT22;42920;45.306;20.448;2023-11-22T06:12:07;231.10;2252.80
57030;DHT22;42920;45.306;20.448;2023-11-22T06:14:33;231.10;2252.80
57030;DHT22;42920;45.306;20.448;2023-11-22T06:16:58;231.10;2252.80
57030;DHT22;42920;45.306;20.448;2023-11-22T06:19:24;231.10;2252.80
57030;DHT22;42920;45.306;20.448;2023-11-22T06:21:49;231.10;2252.80
57030;DHT22;42920;45.306;20.448;2023-11-22T06:24:15;231.10;2252.80
57030;DHT22;42920;45.306;20.448;2023-11-22T06:26:44;231.10;2252.80
57030;DHT22;42920;45.306;20.448;2023-11-22T06:29:13;231.10;2252.80
57030;DHT22;42920;45.306;20.448;2023-11-22T06:31:40;231.00;2252.80
57030;DHT22;42920;45.306;20.448;2023-11-22T06:34:06;231.00;2252.80
57030;DHT22;42920;45.306;20.448;2023-11-22T06:36:31;231.00;2252.80
57030;DHT22;42920;45.306;20.448;2023-11-22T06:38:58;231.10;2252.80
57030;DHT22;42920;45.306;20.448;2023-11-22T06:41:23;231.10;2252.80
57030;DHT22;42920;45.306;20.448;2023-11-22T06:43:49;231.10;2252.80
57030;DHT22;42920;45.306;20.448;2023-11-22T06:46:15;231.00;2252.80
57030;DHT22;42920;45.306;20.448;2023-11-22T06:48:42;231.00;2252.80
57030;DHT22;42920;45.306;20.448;2023-11-22T06:51:09;231.10;2252.80
57030;DHT22;42920;45.306;20.448;2023-11-22T06:53:34;231.00;2252.80
57030;DHT22;42920;45.306;20.448;2023-11-22T06:56:00;230.90;2252.80
57030;DHT22;42920;45.306;20.448;2023-11-22T06:58:26;231.00;2252.80
57030;DHT22;42920;45.306;20.448;2023-11-22T07:00:52;231.00;2252.80
57030;DHT22;42920;45.306;20.448;2023-11-22T07:03:17;231.00;2252.80
57030;DHT22;42920;45.306;20.448;2023-11-22T07:05:44;231.00;2252.80
57030;DHT22;42920;45.306;20.448;2023-11-22T07:08:09;231.00;2252.80
57030;DHT22;42920;45.306;20.448;2023-11-22T07:10:36;231.00;2252.80
57030;DHT22;42920;45.306;20.448;2023-11-22T07:13:02;231.10;2252.80
57030;DHT22;42920;45.306;20.448;2023-11-22T07:15:28;231.10;2252.80
57030;DHT22;42920;45.306;20.448;2023-11-22T07:17:53;231.10;2252.80
57030;DHT22;42920;45.306;20.448;2023-11-22T07:20:20;231.10;2252.80
57030;DHT22;42920;45.306;20.448;2023-11-22T07:22:46;231.10;2252.80
57030;DHT22;42920;45.306;20.448;2023-11-22T07:25:11;231.00;2252.80
57030;DHT22;42920;45.306;20.448;2023-11-22T07:27:44;231.10;2252.80
57030;DHT22;42920;45.306;20.448;2023-11-22T07:30:11;231.10;2252.80
57030;DHT22;42920;45.306;20.448;2023-11-22T07:32:38;231.20;2252.80
57030;DHT22;42920;45.306;20.448;2023-11-22T07:35:05;231.10;2252.80
57030;DHT22;42920;45.306;20.448;2023-11-22T07:37:31;231.10;2252.80
57030;DHT22;42920;45.306;20.448;2023-11-22T07:39:57;231.10;2252.80
57030;DHT22;42920;45.306;20.448;2023-11-22T07:42:22;231.20;2252.80
57030;DHT22;42920;45.306;20.448;2023-11-22T07:44:48;231.20;2252.80
57030;DHT22;42920;45.306;20.448;2023-11-22T07:47:21;231.20;2252.80
57030;DHT22;42920;45.306;20.448;2023-11-22T07:49:48;231.10;2252.80
57030;DHT22;42920;45.306;20.448;2023-11-22T07:52:14;231.10;2252.80
57030;DHT22;42920;45.306;20.448;2023-11-22T07:54:39;256.00;2252.80
57030;DHT22;42920;45.306;20.448;2023-11-22T07:57:06;231.30;2252.80
57030;DHT22;42920;45.306;20.448;2023-11-22T07:59:32;231.30;2252.80
57030;DHT22;42920;45.306;20.448;2023-11-22T08:01:58;256.10;2252.80
57030;DHT22;42920;45.306;20.448;2023-11-22T08:04:27;231.10;2252.80
57030;DHT22;42920;45.306;20.448;2023-11-22T08:06:53;231.20;2252.80
57030;DHT22;42920;45.306;20.448;2023-11-22T08:09:22;231.30;2252.80
57030;DHT22;42920;45.306;20.448;2023-11-22T08:11:48;231.30;2252.80
57030;DHT22;42920;45.306;20.448;2023-11-22T08:14:14;256.00;2252.80
57030;DHT22;42920;45.306;20.448;2023-11-22T08:16:40;256.00;2252.80
57030;DHT22;42920;45.306;20.448;2023-11-22T08:19:08;231.30;2252.80
57030;DHT22;42920;45.306;20.448;2023-11-22T08:21:34;231.30;2252.80
57030;DHT22;42920;45.306;20.448;2023-11-22T08:24:00;256.30;2252.80
57030;DHT22;42920;45.306;20.448;2023-11-22T08:26:26;256.00;2252.80
57030;DHT22;42920;45.306;20.448;2023-11-22T08:28:53;256.10;2252.80
57030;DHT22;42920;45.306;20.448;2023-11-22T08:31:18;256.10;2252.80
57030;DHT22;42920;45.306;20.448;2023-11-22T08:33:44;256.10;2252.80
57030;DHT22;42920;45.306;20.448;2023-11-22T08:36:09;256.00;2252.80
57030;DHT22;42920;45.306;20.448;2023-11-22T08:38:35;256.00;2252.80
57030;DHT22;42920;45.306;20.448;2023-11-22T08:41:04;231.30;2252.80
57030;DHT22;42920;45.306;20.448;2023-11-22T08:43:34;231.30;2252.80
57030;DHT22;42920;45.306;20.448;2023-11-22T08:45:59;231.30;2252.80
57030;DHT22;42920;45.306;20.448;2023-11-22T08:48:25;256.70;2252.80
57030;DHT22;42920;45.306;20.448;2023-11-22T08:50:51;231.10;2252.80
57030;DHT22;42920;45.306;20.448;2023-11-22T08:53:19;231.20;2252.80
57030;DHT22;42920;45.306;20.448;2023-11-22T08:55:45;231.20;2252.80
57030;DHT22;42920;45.306;20.448;2023-11-22T08:58:10;231.20;2252.80
57030;DHT22;42920;45.306;20.448;2023-11-22T09:00:36;231.30;2252.80
57030;DHT22;42920;45.306;20.448;2023-11-22T09:03:02;256.00;2252.80
57030;DHT22;42920;45.306;20.448;2023-11-22T09:05:28;256.10;2252.80
57030;DHT22;42920;45.306;20.448;2023-11-22T09:07:54;256.20;2252.80
57030;DHT22;42920;45.306;20.448;2023-11-22T09:10:21;256.20;2252.80
57030;DHT22;42920;45.306;20.448;2023-11-22T09:12:47;256.10;2252.80
57030;DHT22;42920;45.306;20.448;2023-11-22T09:15:13;256.10;2252.80
57030;DHT22;42920;45.306;20.448;2023-11-22T09:17:44;256.60;2252.80
57030;DHT22;42920;45.306;20.448;2023-11-22T09:20:17;256.20;2252.80
57030;DHT22;42920;45.306;20.448;2023-11-22T09:22:44;256.20;2252.80
57030;DHT22;42920;45.306;20.448;2023-11-22T09:27:42;256.20;2252.80
57030;DHT22;42920;45.306;20.448;2023-11-22T09:30:11;256.20;2252.80
57030;DHT22;42920;45.306;20.448;2023-11-22T09:32:44;256.10;2252.80
57030;DHT22;42920;45.306;20.448;2023-11-22T09:35:11;256.30;2252.80
57030;DHT22;42920;45.306;20.448;2023-11-22T09:37:39;256.30;2252.80
57030;DHT22;42920;45.306;20.448;2023-11-22T09:40:09;256.20;2252.80
57030;DHT22;42920;45.306;20.448;2023-11-22T09:42:35;256.30;2252.80
57030;DHT22;42920;45.306;20.448;2023-11-22T09:45:00;256.20;2252.80
57030;DHT22;42920;45.306;20.448;2023-11-22T09:47:26;256.30;2252.80
57030;DHT22;42920;45.306;20.448;2023-11-22T09:49:53;256.10;2252.80
57030;DHT22;42920;45.306;20.448;2023-11-22T09:52:21;256.20;2252.80
57030;DHT22;42920;45.306;20.448;2023-11-22T09:54:48;256.20;2252.80
57030;DHT22;42920;45.306;20.448;2023-11-22T09:57:16;256.20;2252.80
57030;DHT22;42920;45.306;20.448;2023-11-22T09:59:42;256.20;2252.80
57030;DHT22;42920;45.306;20.448;2023-11-22T10:02:08;256.20;2252.80
57030;DHT22;42920;45.306;20.448;2023-11-22T10:04:34;256.60;2252.80
57030;DHT22;42920;45.306;20.448;2023-11-22T10:07:00;256.30;2252.80
57030;DHT22;42920;45.306;20.448;2023-11-22T10:09:25;256.30;2252.80
57030;DHT22;42920;45.306;20.448;2023-11-22T10:12:01;256.40;2252.80
57030;DHT22;42920;45.306;20.448;2023-11-22T10:14:27;256.40;2252.80
57030;DHT22;42920;45.306;20.448;2023-11-22T10:17:01;256.40;2252.80
57030;DHT22;42920;45.306;20.448;2023-11-22T10:19:28;256.40;2252.80
57030;DHT22;42920;45.306;20.448;2023-11-22T10:22:03;256.40;2252.80
57030;DHT22;42920;45.306;20.448;2023-11-22T10:24:30;256.40;2252.80
57030;DHT22;42920;45.306;20.448;2023-11-22T10:26:57;256.30;2252.80
57030;DHT22;42920;45.306;20.448;2023-11-22T10:29:24;256.30;2252.80
57030;DHT22;42920;45.306;20.448;2023-11-22T10:31:50;256.40;2252.80
57030;DHT22;42920;45.306;20.448;2023-11-22T10:34:21;256.40;2252.80
57030;DHT22;42920;45.306;20.448;2023-11-22T10:36:47;256.40;2252.80
57030;DHT22;42920;45.306;20.448;2023-11-22T10:39:12;256.40;2252.80
57030;DHT22;42920;45.306;20.448;2023-11-22T10:41:42;256.40;2252.80
57030;DHT22;42920;45.306;20.448;2023-11-22T10:44:09;231.30;2252.80
57030;DHT22;42920;45.306;20.448;2023-11-22T10:46:34;256.50;2252.80
57030;DHT22;42920;45.306;20.448;2023-11-22T10:49:02;256.50;2252.80
57030;DHT22;42920;45.306;20.448;2023-11-22T10:51:31;256.60;2252.80
57030;DHT22;42920;45.306;20.448;2023-11-22T10:53:57;256.70;2252.80
57030;DHT22;42920;45.306;20.448;2023-11-22T10:56:23;256.80;2124.80
57030;DHT22;42920;45.306;20.448;2023-11-22T10:58:49;256.70;2252.80
57030;DHT22;42920;45.306;20.448;2023-11-22T11:01:16;256.70;2099.20
57030;DHT22;42920;45.306;20.448;2023-11-22T11:03:46;256.70;2201.60
57030;DHT22;42920;45.306;20.448;2023-11-22T11:06:18;256.80;2252.80
57030;DHT22;42920;45.306;20.448;2023-11-22T11:08:44;256.80;2252.80
57030;DHT22;42920;45.306;20.448;2023-11-22T11:11:10;256.70;1971.20
57030;DHT22;42920;45.306;20.448;2023-11-22T11:13:37;256.60;2176.00
57030;DHT22;42920;45.306;20.448;2023-11-22T11:16:04;256.60;2227.20
57030;DHT22;42920;45.306;20.448;2023-11-22T11:18:29;256.60;2022.40
57030;DHT22;42920;45.306;20.448;2023-11-22T11:20:58;256.90;2176.00
57030;DHT22;42920;45.306;20.448;2023-11-22T11:23:28;256.80;2227.20
57030;DHT22;42920;45.306;20.448;2023-11-22T11:25:58;256.80;2099.20
57030;DHT22;42920;45.306;20.448;2023-11-22T11:28:31;281.60;2278.40
57030;DHT22;42920;45.306;20.448;2023-11-22T11:31:06;281.60;2278.40
57030;DHT22;42920;45.306;20.448;2023-11-22T11:33:33;281.60;2278.40
57030;DHT22;42920;45.306;20.448;2023-11-22T11:36:00;256.90;2252.80
57030;DHT22;42920;45.306;20.448;2023-11-22T11:38:34;281.60;1920.00
57030;DHT22;42920;45.306;20.448;2023-11-22T11:41:08;256.80;2252.80
57030;DHT22;42920;45.306;20.448;2023-11-22T11:43:40;256.80;2252.80
57030;DHT22;42920;45.306;20.448;2023-11-22T11:46:06;281.60;2278.40
57030;DHT22;42920;45.306;20.448;2023-11-22T11:48:33;281.60;2278.40
57030;DHT22;42920;45.306;20.448;2023-11-22T11:50:59;281.70;2278.40
57030;DHT22;42920;45.306;20.448;2023-11-22T11:53:24;281.70;2278.40
57030;DHT22;42920;45.306;20.448;2023-11-22T11:55:50;281.60;2278.40
57030;DHT22;42920;45.306;20.448;2023-11-22T11:58:17;281.60;2278.40
57030;DHT22;42920;45.306;20.448;2023-11-22T12:00:43;281.70;2278.40
57030;DHT22;42920;45.306;20.448;2023-11-22T12:03:09;281.70;2278.40
57030;DHT22;42920;45.306;20.448;2023-11-22T12:05:38;281.80;2278.40
57030;DHT22;42920;45.306;20.448;2023-11-22T12:08:04;281.90;2278.40
57030;DHT22;42920;45.306;20.448;2023-11-22T12:10:30;281.90;2278.40
57030;DHT22;42920;45.306;20.448;2023-11-22T12:12:56;281.90;2278.40
57030;DHT22;42920;45.306;20.448;2023-11-22T12:15:22;281.90;2278.40
57030;DHT22;42920;45.306;20.448;2023-11-22T12:17:48;281.90;2278.40
57030;DHT22;42920;45.306;20.448;2023-11-22T12:20:16;281.90;2278.40
57030;DHT22;42920;45.306;20.448;2023-11-22T12:22:43;282.50;2278.40
57030;DHT22;42920;45.306;20.448;2023-11-22T12:25:10;282.10;2278.40
57030;DHT22;42920;45.306;20.448;2023-11-22T12:27:43;282.10;2278.40
57030;DHT22;42920;45.306;20.448;2023-11-22T12:30:27;282.10;2278.40
57030;DHT22;42920;45.306;20.448;2023-11-22T12:32:53;282.10;2278.40
57030;DHT22;42920;45.306;20.448;2023-11-22T12:35:18;282.10;2278.40
57030;DHT22;42920;45.306;20.448;2023-11-22T12:37:45;282.10;2278.40
57030;DHT22;42920;45.306;20.448;2023-11-22T12:40:12;282.10;2278.40
57030;DHT22;42920;45.306;20.448;2023-11-22T12:42:50;282.20;2278.40
57030;DHT22;42920;45.306;20.448;2023-11-22T12:45:20;282.10;2278.40
57030;DHT22;42920;45.306;20.448;2023-11-22T12:47:46;282.20;2278.40
57030;DHT22;42920;45.306;20.448;2023-11-22T12:50:32;282.20;2278.40
57030;DHT22;42920;45.306;20.448;2023-11-22T12:53:10;282.20;2278.40
57030;DHT22;42920;45.306;20.448;2023-11-22T12:55:45;282.20;2278.40
57030;DHT22;42920;45.306;20.448;2023-11-22T12:58:12;282.30;2278.40
57030;DHT22;42920;45.306;20.448;2023-11-22T13:00:41;282.30;2278.40
57030;DHT22;42920;45.306;20.448;2023-11-22T13:03:07;282.30;2278.40
57030;DHT22;42920;45.306;20.448;2023-11-22T13:05:33;282.30;2278.40
57030;DHT22;42920;45.306;20.448;2023-11-22T13:07:59;282.40;2278.40
57030;DHT22;42920;45.306;20.448;2023-11-22T13:10:24;282.40;2278.40
57030;DHT22;42920;45.306;20.448;2023-11-22T13:12:54;282.40;2278.40
57030;DHT22;42920;45.306;20.448;2023-11-22T13:15:20;282.40;2278.40
57030;DHT22;42920;45.306;20.448;2023-11-22T13:17:52;282.50;2278.40
57030;DHT22;42920;45.306;20.448;2023-11-22T13:20:26;307.20;2304.00
57030;DHT22;42920;45.306;20.448;2023-11-22T13:22:52;307.20;2304.00
57030;DHT22;42920;45.306;20.448;2023-11-22T13:25:18;307.20;2304.00
57030;DHT22;42920;45.306;20.448;2023-11-22T13:27:47;282.50;2278.40
57030;DHT22;42920;45.306;20.448;2023-11-22T13:30:15;282.50;2278.40
57030;DHT22;42920;45.306;20.448;2023-11-22T13:32:43;282.50;2278.40
57030;DHT22;42920;45.306;20.448;2023-11-22T13:35:09;282.30;2278.40
57030;DHT22;42920;45.306;20.448;2023-11-22T13:37:43;307.20;2304.00
57030;DHT22;42920;45.306;20.448;2023-11-22T13:40:12;307.20;2304.00
57030;DHT22;42920;45.306;20.448;2023-11-22T13:42:43;282.50;2278.40
57030;DHT22;42920;45.306;20.448;2023-11-22T13:45:10;282.50;2278.40
57030;DHT22;42920;45.306;20.448;2023-11-22T13:47:35;282.50;2278.40
57030;DHT22;42920;45.306;20.448;2023-11-22T13:50:01;282.50;2278.40
57030;DHT22;42920;45.306;20.448;2023-11-22T13:52:29;282.50;2278.40
57030;DHT22;42920;45.306;20.448;2023-11-22T13:54:54;282.50;2278.40
57030;DHT22;42920;45.306;20.448;2023-11-22T13:57:22;282.40;2278.40
57030;DHT22;42920;45.306;20.448;2023-11-22T13:59:48;282.50;2278.40
57030;DHT22;42920;45.306;20.448;2023-11-22T14:02:13;282.40;2278.40
57030;DHT22;42920;45.306;20.448;2023-11-22T14:04:39;282.30;2278.40
57030;DHT22;42920;45.306;20.448;2023-11-22T14:07:05;282.40;2278.40
57030;DHT22;42920;45.306;20.448;2023-11-22T14:09:32;282.40;2278.40
57030;DHT22;42920;45.306;20.448;2023-11-22T14:12:02;282.40;2278.40
57030;DHT22;42920;45.306;20.448;2023-11-22T14:14:27;282.40;2278.40
57030;DHT22;42920;45.306;20.448;2023-11-22T14:16:53;282.30;2278.40
57030;DHT22;42920;45.306;20.448;2023-11-22T14:19:18;282.40;2278.40
57030;DHT22;42920;45.306;20.448;2023-11-22T14:21:44;282.40;2278.40
57030;DHT22;42920;45.306;20.448;2023-11-22T14:24:10;282.30;2278.40
57030;DHT22;42920;45.306;20.448;2023-11-22T14:26:35;282.30;2278.40
57030;DHT22;42920;45.306;20.448;2023-11-22T14:29:02;282.30;2278.40
57030;DHT22;42920;45.306;20.448;2023-11-22T14:31:28;282.30;2278.40
57030;DHT22;42920;45.306;20.448;2023-11-22T14:33:54;282.20;2278.40
57030;DHT22;42920;45.306;20.448;2023-11-22T14:36:23;282.10;2278.40